Airfield :
LOGIN :

Register | Disclaimer

   EN    FR    IT 

 










Legend :    VFR   Marginal VFR   IFR   Intensive IFR   Very Intensive IFR
Visi :
Ceiling :
>= 8 km
>= 3000ft
5 to 8 km
1000 to 3000 ft
1500m to 5 km
500 to 1000 ft
800 to 1500m
200 to 500 ft
< 800m
< 200 ft
Symbols :   Thunderstorms  Fog  Heavy snow  Heavy precipitations  Wind > 20 kt
SIGMETs :     Misc.  Thunderstorms  Icing  Turbulence  Mountain Waves  Volcanic Ashes







- Airport Elevation : 896 ft


LOAN - Wiener Neustadt East

CURRENT METAR :
  • 221200Z 12007KT 40KM FEW035CU SCT060SC BKN130AC

EXPIRED METARs :
  • 221100Z 08004KT 40KM FEW035CU SCT060SC BKN130AC
  • 221000Z 03006KT 35KM FEW035CU SCT050SC BKN090AC

TAF TAF LOAN
Valid from the 22 at 12:00 until the 22 at 21:00 UTC


221125Z 2212/2221 34012KT 9999 SCT050 SCT100
TEMPO 2212/2220 36015G25KT
PROB40
TEMPO 2216/2219 34020G35KT 6000 SHRAGS FEW040CB BKN050
No reported NOTAMs for that airfield.



MET'MAP, your aeronautical weather chart ! - Copyright ORBIFLY December 2007 - Disclaimer

ORBIFLY MET'MAP TEAM :

Programming & Development : Alexandra Zaïnal
Concept & Development : Baudouin d'Aumeries
Co-Development & Prog : Marc-Olivier Méhu
Technical & hardware support : Manuel Goepfert

Contact : metmap@orbifly.com




SOURCES & CREDITS :

   NOAA